createdAt,value
2023-01-15T00:00:15.080Z,91
2023-01-15T00:05:15.089Z,91
2023-01-15T00:10:15.411Z,91
2023-01-15T00:15:15.143Z,91
2023-01-15T00:20:15.084Z,91
2023-01-15T00:25:15.099Z,91
2023-01-15T00:30:15.087Z,91
2023-01-15T00:35:15.136Z,92
2023-01-15T00:40:15.101Z,92
2023-01-15T00:45:15.103Z,91
2023-01-15T00:50:15.102Z,92
2023-01-15T00:55:15.104Z,92
2023-01-15T01:00:15.142Z,92
2023-01-15T01:05:15.090Z,92
2023-01-15T01:10:15.096Z,92
2023-01-15T01:15:15.113Z,92
2023-01-15T01:20:15.080Z,92
2023-01-15T01:25:15.085Z,92
2023-01-15T01:30:15.091Z,92
2023-01-15T01:35:15.115Z,91
2023-01-15T01:40:15.120Z,92
2023-01-15T01:45:15.124Z,92
2023-01-15T01:50:15.083Z,92
2023-01-15T01:55:15.109Z,92
2023-01-15T02:00:15.090Z,93
2023-01-15T02:05:15.091Z,94
2023-01-15T02:10:15.099Z,94
2023-01-15T02:15:15.095Z,95
2023-01-15T02:20:15.096Z,95
2023-01-15T02:25:15.103Z,95
2023-01-15T02:30:15.089Z,95
2023-01-15T02:35:15.098Z,96
2023-01-15T02:40:15.096Z,96
2023-01-15T02:45:15.123Z,96
2023-01-15T02:50:15.092Z,96
2023-01-15T02:55:15.094Z,96
2023-01-15T03:00:15.111Z,96
2023-01-15T03:05:15.110Z,96
2023-01-15T03:10:15.094Z,96
2023-01-15T03:15:15.236Z,96
2023-01-15T03:20:15.099Z,96
2023-01-15T03:25:15.099Z,96
2023-01-15T03:30:15.101Z,96
2023-01-15T03:35:15.097Z,96
2023-01-15T03:40:15.095Z,96
2023-01-15T03:45:15.104Z,96
2023-01-15T03:50:15.083Z,96
2023-01-15T03:55:15.097Z,97
2023-01-15T04:00:15.083Z,97
2023-01-15T04:05:15.113Z,97
2023-01-15T04:10:15.100Z,97
2023-01-15T04:15:15.098Z,98
2023-01-15T04:20:15.094Z,94
2023-01-15T04:25:15.099Z,93
2023-01-15T04:30:15.089Z,94
2023-01-15T04:35:15.091Z,95
2023-01-15T04:40:15.096Z,95
2023-01-15T04:45:15.090Z,95
2023-01-15T04:50:15.091Z,96
2023-01-15T04:55:15.097Z,96
2023-01-15T05:00:15.101Z,96
2023-01-15T05:05:15.101Z,97
2023-01-15T05:10:15.107Z,97
2023-01-15T05:15:15.098Z,97
2023-01-15T05:20:15.101Z,98
2023-01-15T05:25:15.114Z,97
2023-01-15T05:30:15.091Z,96
2023-01-15T05:35:15.096Z,97
2023-01-15T05:40:15.099Z,96
2023-01-15T05:45:15.094Z,97
2023-01-15T05:50:15.100Z,95
2023-01-15T05:55:15.115Z,95
2023-01-15T06:00:15.087Z,95
2023-01-15T06:05:15.107Z,95
2023-01-15T06:10:15.110Z,95
2023-01-15T06:15:15.096Z,93
2023-01-15T06:20:15.096Z,93
2023-01-15T06:25:15.104Z,92
2023-01-15T06:30:15.094Z,92
2023-01-15T06:35:15.110Z,93
2023-01-15T06:40:15.100Z,92
2023-01-15T06:45:15.105Z,93
2023-01-15T06:50:15.110Z,93
2023-01-15T06:55:15.101Z,94
2023-01-15T07:00:15.089Z,94
2023-01-15T07:05:15.094Z,94
2023-01-15T07:10:15.100Z,94
2023-01-15T07:15:15.092Z,94
2023-01-15T07:20:15.094Z,94
2023-01-15T07:25:15.101Z,94
2023-01-15T07:30:15.083Z,95
2023-01-15T07:35:15.113Z,96
2023-01-15T07:40:15.082Z,96
2023-01-15T07:45:15.092Z,97
2023-01-15T07:50:15.086Z,97
2023-01-15T07:55:15.090Z,95
2023-01-15T08:00:15.086Z,96
2023-01-15T08:05:15.093Z,96
2023-01-15T08:10:15.097Z,96
2023-01-15T08:15:15.124Z,97
2023-01-15T08:20:15.115Z,97
2023-01-15T08:25:15.087Z,97
2023-01-15T08:30:15.088Z,96
2023-01-15T08:35:15.094Z,95
2023-01-15T08:40:15.091Z,96
2023-01-15T08:45:15.086Z,96
2023-01-15T08:50:15.088Z,96
2023-01-15T08:55:15.085Z,96
2023-01-15T09:00:17.336Z,96
2023-01-15T09:05:15.097Z,96
2023-01-15T09:10:15.084Z,96
2023-01-15T09:15:15.092Z,96
2023-01-15T09:20:15.100Z,96
2023-01-15T09:25:15.089Z,97
2023-01-15T09:30:15.089Z,97
2023-01-15T09:35:15.093Z,96
2023-01-15T09:40:15.085Z,96
2023-01-15T09:45:15.110Z,96
2023-01-15T09:50:15.091Z,96
2023-01-15T09:55:15.103Z,97
2023-01-15T10:00:15.087Z,97
2023-01-15T10:05:15.092Z,97
2023-01-15T10:10:17.425Z,97
2023-01-15T10:15:15.095Z,97
2023-01-15T10:20:15.081Z,96
2023-01-15T10:25:15.089Z,96
2023-01-15T10:30:15.091Z,97
2023-01-15T10:35:15.088Z,96
2023-01-15T10:40:15.102Z,97
2023-01-15T10:45:15.087Z,97
2023-01-15T10:50:15.087Z,97
2023-01-15T10:55:15.094Z,96
2023-01-15T11:00:15.085Z,97
2023-01-15T11:05:15.095Z,96
2023-01-15T11:10:15.081Z,96
2023-01-15T11:15:15.091Z,97
2023-01-15T11:20:15.089Z,97
2023-01-15T11:25:15.086Z,97
2023-01-15T11:30:15.080Z,97
2023-01-15T11:35:15.086Z,97
2023-01-15T11:40:15.119Z,96
2023-01-15T11:45:15.085Z,97
2023-01-15T11:50:15.107Z,96
2023-01-15T11:55:15.085Z,94
2023-01-15T12:00:15.078Z,92
2023-01-15T12:05:15.086Z,92
2023-01-15T12:10:15.086Z,92
2023-01-15T12:15:15.093Z,91
2023-01-15T12:20:15.090Z,91
2023-01-15T12:25:15.092Z,92
2023-01-15T12:30:15.087Z,91
2023-01-15T12:35:15.091Z,90
2023-01-15T12:40:15.111Z,90
2023-01-15T12:45:15.091Z,91
2023-01-15T12:50:15.091Z,90
2023-01-15T12:55:15.108Z,90
2023-01-15T13:00:15.087Z,90
2023-01-15T13:05:15.097Z,90
2023-01-15T13:10:15.094Z,91
2023-01-15T13:15:15.100Z,92
2023-01-15T13:20:15.093Z,93
2023-01-15T13:25:15.116Z,93
2023-01-15T13:30:15.110Z,93
2023-01-15T13:35:15.118Z,94
2023-01-15T13:40:15.104Z,94
2023-01-15T13:45:15.106Z,92
2023-01-15T13:50:15.105Z,92
2023-01-15T13:55:15.113Z,92
2023-01-15T14:00:15.104Z,92
2023-01-15T14:05:15.107Z,89
2023-01-15T14:10:15.103Z,90
2023-01-15T15:00:15.102Z,88
2023-01-15T15:05:15.107Z,88
2023-01-15T15:10:15.100Z,86
2023-01-15T15:15:15.106Z,86
2023-01-15T15:20:15.097Z,87
2023-01-15T15:25:15.090Z,86
2023-01-15T15:30:15.087Z,87
2023-01-15T15:35:15.102Z,88
2023-01-15T15:40:15.096Z,88
2023-01-15T15:45:15.099Z,88
2023-01-15T15:50:15.104Z,88
2023-01-15T15:55:15.089Z,88
2023-01-15T16:00:15.108Z,88
2023-01-15T16:05:15.100Z,88
2023-01-15T16:10:15.094Z,87
2023-01-15T16:15:15.105Z,88
2023-01-15T16:20:15.092Z,87
2023-01-15T16:25:15.089Z,87
2023-01-15T16:30:15.097Z,87
2023-01-15T16:35:15.118Z,87
2023-01-15T16:40:15.088Z,87
2023-01-15T16:45:15.100Z,86
2023-01-15T16:50:15.089Z,85
2023-01-15T16:55:16.540Z,85
2023-01-15T17:00:15.084Z,85
2023-01-15T17:05:15.171Z,84
2023-01-15T17:10:15.089Z,84
2023-01-15T17:15:15.146Z,85
2023-01-15T17:20:15.096Z,84
2023-01-15T17:25:15.093Z,84
2023-01-15T17:30:15.089Z,85
2023-01-15T17:35:15.103Z,85
2023-01-15T17:40:15.087Z,85
2023-01-15T17:45:15.229Z,85
2023-01-15T17:50:15.099Z,85
2023-01-15T17:55:15.101Z,86
2023-01-15T18:00:15.131Z,86
2023-01-15T18:05:15.107Z,86
2023-01-15T18:10:15.086Z,86
2023-01-15T18:15:15.094Z,86
2023-01-15T18:20:15.095Z,88
2023-01-15T18:25:15.096Z,88
2023-01-15T18:30:15.095Z,87
2023-01-15T18:35:15.100Z,88
2023-01-15T18:40:15.094Z,88
2023-01-15T18:45:15.096Z,89
2023-01-15T18:50:15.097Z,89
2023-01-15T18:55:15.093Z,87
2023-01-15T19:00:15.092Z,87
2023-01-15T19:05:15.100Z,87
2023-01-15T19:10:15.091Z,86
2023-01-15T19:15:15.104Z,86
2023-01-15T19:20:15.093Z,85
2023-01-15T19:25:15.092Z,85
2023-01-15T19:30:15.101Z,84
2023-01-15T19:35:15.097Z,83
2023-01-15T19:40:15.096Z,83
2023-01-15T19:45:15.097Z,84
2023-01-15T19:50:15.108Z,84
2023-01-15T19:55:15.161Z,83
2023-01-15T20:00:15.080Z,83
2023-01-15T20:05:15.114Z,83
2023-01-15T20:10:15.086Z,82
2023-01-15T20:15:15.098Z,83
2023-01-15T20:20:15.091Z,84
2023-01-15T20:25:15.096Z,83
2023-01-15T20:30:15.112Z,84
2023-01-15T20:35:15.101Z,84
2023-01-15T20:40:15.092Z,83
2023-01-15T20:45:15.249Z,83
2023-01-15T20:50:15.885Z,83
2023-01-15T20:55:15.099Z,83
2023-01-15T21:00:15.101Z,82
2023-01-15T21:05:15.087Z,82
2023-01-15T21:10:15.092Z,82
2023-01-15T21:15:15.104Z,82
2023-01-15T21:20:15.102Z,82
2023-01-15T21:25:15.097Z,83
2023-01-15T21:30:15.100Z,83
2023-01-15T21:35:15.096Z,83
2023-01-15T21:40:15.099Z,83
2023-01-15T21:45:15.098Z,84
2023-01-15T21:50:15.085Z,86
2023-01-15T21:55:15.088Z,87
2023-01-15T22:00:15.092Z,87
2023-01-15T22:05:15.092Z,87
2023-01-15T22:10:15.112Z,87
2023-01-15T22:15:15.092Z,86
2023-01-15T22:20:15.101Z,86
2023-01-15T22:25:15.094Z,86
2023-01-15T22:30:15.084Z,86
2023-01-15T22:35:15.093Z,86
2023-01-15T22:40:15.103Z,86
2023-01-15T22:45:15.112Z,86
2023-01-15T22:50:15.090Z,85
2023-01-15T22:55:15.113Z,85
2023-01-15T23:00:15.093Z,86
2023-01-15T23:05:15.095Z,86
2023-01-15T23:10:15.092Z,86
2023-01-15T23:15:15.105Z,86
2023-01-15T23:20:15.104Z,86
2023-01-15T23:25:15.100Z,85
2023-01-15T23:30:15.097Z,85
2023-01-15T23:35:15.100Z,86
2023-01-15T23:40:15.092Z,86
2023-01-15T23:45:15.102Z,87
2023-01-15T23:50:15.093Z,87
2023-01-15T23:55:15.096Z,87
